createdAt,value
2017-11-08T00:00:41.383Z,0.00
2017-11-08T00:02:33.996Z,0.00
2017-11-08T00:03:33.887Z,0.00
2017-11-08T00:05:27.373Z,0.00
2017-11-08T00:06:26.967Z,0.00
2017-11-08T00:08:20.815Z,0.00
2017-11-08T00:09:20.487Z,0.00
2017-11-08T00:11:13.709Z,0.00
2017-11-08T00:12:13.572Z,0.00
2017-11-08T00:14:07.232Z,0.00
2017-11-08T00:15:07.124Z,0.00
2017-11-08T00:17:03.235Z,0.00
2017-11-08T00:18:03.152Z,0.00
2017-11-08T00:19:56.781Z,0.00
2017-11-08T00:20:56.764Z,0.00
2017-11-08T00:22:50.487Z,0.00
2017-11-08T00:23:49.771Z,0.00
2017-11-08T00:25:53.041Z,0.00
2017-11-08T00:26:53.038Z,0.00
2017-11-08T00:28:47.638Z,0.00
2017-11-08T00:29:48.151Z,0.00
2017-11-08T00:31:41.335Z,0.00
2017-11-08T00:32:40.796Z,0.00
2017-11-08T00:34:35.990Z,0.00
2017-11-08T00:35:35.307Z,0.00
2017-11-08T00:37:28.474Z,0.00
2017-11-08T00:38:28.375Z,0.00
2017-11-08T00:40:21.610Z,0.00
2017-11-08T00:41:21.465Z,0.00
2017-11-08T00:43:15.086Z,0.00
2017-11-08T00:44:14.970Z,0.00
2017-11-08T00:46:08.130Z,0.00
2017-11-08T00:47:08.098Z,0.00
2017-11-08T00:49:01.510Z,0.00
2017-11-08T00:50:01.185Z,0.00
2017-11-08T00:51:55.792Z,0.00
2017-11-08T00:52:55.734Z,0.00
2017-11-08T00:54:49.364Z,0.00
2017-11-08T00:55:48.801Z,0.00
2017-11-08T00:57:42.422Z,0.00
2017-11-08T00:58:41.861Z,0.00
2017-11-08T01:00:35.489Z,0.00
2017-11-08T01:01:35.425Z,0.00
2017-11-08T01:03:32.048Z,0.00
2017-11-08T01:04:31.433Z,0.00
2017-11-08T01:06:26.073Z,0.00
2017-11-08T01:07:26.029Z,0.00
2017-11-08T01:09:20.693Z,0.00
2017-11-08T01:10:20.943Z,0.00
2017-11-08T01:12:16.691Z,0.00
2017-11-08T01:13:16.567Z,0.00
2017-11-08T01:15:11.361Z,0.00
2017-11-08T01:16:11.224Z,0.00
2017-11-08T01:18:04.875Z,0.00
2017-11-08T01:19:04.789Z,0.00
2017-11-08T01:20:58.694Z,0.00
2017-11-08T01:21:58.745Z,0.00
2017-11-08T01:23:52.219Z,0.00
2017-11-08T01:24:51.866Z,0.00
2017-11-08T01:26:45.621Z,0.00
2017-11-08T01:27:46.032Z,0.00
2017-11-08T01:29:39.128Z,0.00
2017-11-08T01:30:39.042Z,0.00
2017-11-08T01:32:32.825Z,0.00
2017-11-08T01:33:32.863Z,0.00
2017-11-08T01:35:25.746Z,0.00
2017-11-08T01:36:26.248Z,0.00
2017-11-08T01:38:18.870Z,0.00
2017-11-08T01:39:18.763Z,0.00
2017-11-08T01:41:11.895Z,0.00
2017-11-08T01:42:11.865Z,0.00
2017-11-08T01:44:05.524Z,0.00
2017-11-08T01:45:04.767Z,0.00
2017-11-08T01:46:58.520Z,0.00
2017-11-08T01:47:58.445Z,0.00
2017-11-08T01:49:51.555Z,0.00
2017-11-08T01:50:51.462Z,0.00
2017-11-08T01:52:44.646Z,0.00
2017-11-08T01:53:44.504Z,0.00
2017-11-08T01:55:38.101Z,0.00
2017-11-08T01:56:37.743Z,0.00
2017-11-08T01:58:30.979Z,0.00
2017-11-08T01:59:30.799Z,0.00
2017-11-08T02:01:26.865Z,0.00
2017-11-08T02:02:27.310Z,0.00
2017-11-08T02:04:20.045Z,0.00
2017-11-08T02:05:19.912Z,0.00
2017-11-08T02:07:13.661Z,0.00
2017-11-08T02:08:13.495Z,0.00
2017-11-08T02:10:08.482Z,0.00
2017-11-08T02:11:08.085Z,0.00
2017-11-08T02:13:02.831Z,0.00
2017-11-08T02:14:02.669Z,0.00
2017-11-08T02:15:56.891Z,0.00
2017-11-08T02:16:56.324Z,0.00
2017-11-08T02:18:52.370Z,0.00
2017-11-08T02:19:53.376Z,0.00
2017-11-08T02:21:47.477Z,0.00
2017-11-08T02:22:46.913Z,0.00
2017-11-08T02:24:40.113Z,0.00
2017-11-08T02:25:39.944Z,0.00
2017-11-08T02:27:33.084Z,0.00
2017-11-08T02:28:33.481Z,0.00
2017-11-08T02:30:27.197Z,0.00
2017-11-08T02:31:26.548Z,0.00
2017-11-08T02:33:20.175Z,0.00
2017-11-08T02:34:20.146Z,0.00
2017-11-08T02:36:13.267Z,0.00
2017-11-08T02:37:13.228Z,0.00
2017-11-08T02:39:06.848Z,0.00
2017-11-08T02:40:06.289Z,0.00
2017-11-08T02:41:59.697Z,0.00
2017-11-08T02:42:59.238Z,0.00
2017-11-08T02:44:53.949Z,0.00
2017-11-08T02:45:53.909Z,0.00
2017-11-08T02:47:47.570Z,0.00
2017-11-08T02:48:47.461Z,0.00
2017-11-08T02:50:40.619Z,0.00
2017-11-08T02:51:40.555Z,0.00
2017-11-08T02:53:36.791Z,0.00
2017-11-08T02:54:36.679Z,0.00
2017-11-08T02:56:30.346Z,0.00
2017-11-08T02:57:30.271Z,0.00
2017-11-08T02:59:26.484Z,0.00
2017-11-08T03:00:26.391Z,0.00
2017-11-08T03:01:25.836Z,0.00
2017-11-08T03:02:25.793Z,0.00
2017-11-08T03:03:25.727Z,0.00
2017-11-08T03:04:26.157Z,0.00
2017-11-08T03:05:25.629Z,0.00
2017-11-08T03:06:25.613Z,0.00
2017-11-08T03:07:25.533Z,0.00
2017-11-08T03:08:25.521Z,0.00
2017-11-08T03:09:25.427Z,0.00
2017-11-08T03:10:25.437Z,0.00
2017-11-08T03:11:25.419Z,0.00
2017-11-08T03:12:25.852Z,0.00
2017-11-08T03:13:25.308Z,0.00
2017-11-08T03:14:25.285Z,0.00
2017-11-08T03:15:25.199Z,0.00
2017-11-08T03:16:25.211Z,0.00
2017-11-08T03:17:25.174Z,0.00
2017-11-08T03:18:25.100Z,0.00
2017-11-08T03:19:25.061Z,0.00
2017-11-08T03:20:25.007Z,0.00
2017-11-08T03:21:24.932Z,0.00
2017-11-08T03:22:25.534Z,0.00
2017-11-08T03:23:24.908Z,0.00
2017-11-08T03:24:24.853Z,0.00
2017-11-08T03:25:24.765Z,0.00
2017-11-08T03:26:24.756Z,0.00
2017-11-08T03:27:24.734Z,0.00
2017-11-08T03:28:25.201Z,0.00
2017-11-08T03:29:24.617Z,0.00
2017-11-08T03:30:24.526Z,0.00
2017-11-08T03:31:24.527Z,0.00
2017-11-08T03:32:24.403Z,0.00
2017-11-08T03:33:24.289Z,0.00
2017-11-08T03:34:24.052Z,0.00
2017-11-08T03:35:24.021Z,0.00
2017-11-08T03:36:24.046Z,0.00
2017-11-08T03:37:24.596Z,0.00
2017-11-08T03:38:23.759Z,0.00
2017-11-08T03:39:23.746Z,0.00
2017-11-08T03:40:23.679Z,0.00
2017-11-08T03:41:23.646Z,0.00
2017-11-08T03:42:23.695Z,0.00
2017-11-08T03:43:23.599Z,0.00
2017-11-08T03:44:23.623Z,0.00
2017-11-08T03:45:23.496Z,0.00
2017-11-08T03:46:23.583Z,0.00
2017-11-08T03:47:23.398Z,0.00
2017-11-08T03:48:23.445Z,0.00
2017-11-08T03:49:23.452Z,0.00
2017-11-08T03:50:23.278Z,0.00
2017-11-08T03:51:23.232Z,0.00
2017-11-08T03:52:23.189Z,0.00
2017-11-08T03:53:23.117Z,0.00
2017-11-08T03:54:23.068Z,0.00
2017-11-08T03:55:23.044Z,0.00
2017-11-08T03:56:23.077Z,0.00
2017-11-08T03:57:22.989Z,0.00
2017-11-08T03:58:22.932Z,0.00
2017-11-08T03:59:22.915Z,0.00
2017-11-08T04:00:22.905Z,0.00
2017-11-08T04:01:22.847Z,0.00
2017-11-08T04:02:22.803Z,0.00
2017-11-08T04:03:22.696Z,0.00
2017-11-08T04:04:22.659Z,0.00
2017-11-08T04:05:22.755Z,0.00
2017-11-08T04:06:22.555Z,0.00
2017-11-08T04:07:22.562Z,0.00
2017-11-08T04:08:22.498Z,0.00
2017-11-08T04:09:22.442Z,0.00
2017-11-08T04:10:22.387Z,0.00
2017-11-08T04:11:22.503Z,0.00
2017-11-08T04:12:23.106Z,0.00
2017-11-08T04:13:22.432Z,0.00
2017-11-08T04:14:22.321Z,0.00
2017-11-08T04:15:22.252Z,0.00
2017-11-08T04:16:22.125Z,0.00
2017-11-08T04:17:22.108Z,0.00
2017-11-08T04:18:22.074Z,0.00
2017-11-08T04:19:22.608Z,0.00
2017-11-08T04:20:22.085Z,0.00
2017-11-08T04:21:22.605Z,0.00
2017-11-08T04:22:21.872Z,0.00
2017-11-08T04:23:21.851Z,0.00
2017-11-08T04:24:21.818Z,0.00
2017-11-08T04:25:21.784Z,0.00
2017-11-08T04:26:21.702Z,0.00
2017-11-08T04:27:21.832Z,0.00
2017-11-08T04:28:21.685Z,0.00
2017-11-08T04:29:21.583Z,0.00
2017-11-08T04:30:21.516Z,0.00
2017-11-08T04:31:21.518Z,0.00
2017-11-08T04:32:21.444Z,0.00
2017-11-08T04:33:21.439Z,0.00
2017-11-08T04:34:21.373Z,0.00
2017-11-08T04:35:21.350Z,0.00
2017-11-08T04:36:21.276Z,0.00
2017-11-08T04:37:21.250Z,0.00
2017-11-08T04:38:21.219Z,0.00
2017-11-08T04:39:21.203Z,0.00
2017-11-08T04:40:21.658Z,0.00
2017-11-08T04:41:21.163Z,0.00
2017-11-08T04:42:20.995Z,0.00
2017-11-08T04:43:21.030Z,0.00
2017-11-08T04:44:20.967Z,0.00
2017-11-08T04:45:20.882Z,0.00
2017-11-08T04:46:20.828Z,0.00
2017-11-08T04:47:20.856Z,0.00
2017-11-08T04:48:20.745Z,0.00
2017-11-08T04:49:20.770Z,0.00
2017-11-08T04:50:20.682Z,0.00
2017-11-08T04:51:20.686Z,0.00
2017-11-08T04:52:20.664Z,0.00
2017-11-08T04:53:20.572Z,0.00
2017-11-08T04:54:20.539Z,0.00
2017-11-08T04:55:20.481Z,0.00
2017-11-08T04:56:20.471Z,0.00
2017-11-08T04:57:20.401Z,0.00
2017-11-08T04:58:20.394Z,0.00
2017-11-08T04:59:20.277Z,0.00
2017-11-08T05:00:20.391Z,0.00
2017-11-08T05:01:20.180Z,0.00
2017-11-08T05:02:20.233Z,0.00
2017-11-08T05:03:20.199Z,0.00
2017-11-08T05:04:20.107Z,0.00
2017-11-08T05:05:20.023Z,0.00
2017-11-08T05:06:20.039Z,0.00
2017-11-08T05:07:21.059Z,0.00
2017-11-08T05:08:20.012Z,0.00
2017-11-08T05:09:19.860Z,0.00
2017-11-08T05:10:19.899Z,0.00
2017-11-08T05:11:19.798Z,0.00
2017-11-08T05:12:19.717Z,0.00
2017-11-08T05:13:19.781Z,0.00
2017-11-08T05:14:19.643Z,0.00
2017-11-08T05:15:19.634Z,0.00
2017-11-08T05:16:19.569Z,0.00
2017-11-08T05:17:20.116Z,0.00
2017-11-08T05:18:20.126Z,0.00
2017-11-08T05:20:14.228Z,0.00
2017-11-08T05:21:15.112Z,0.00
2017-11-08T05:23:08.291Z,0.00
2017-11-08T05:24:07.646Z,0.00
2017-11-08T05:25:07.570Z,0.00
2017-11-08T05:26:07.550Z,0.00
2017-11-08T05:27:07.563Z,0.00
2017-11-08T05:28:07.480Z,0.00
2017-11-08T05:29:07.419Z,0.00
2017-11-08T05:30:07.340Z,0.00
2017-11-08T05:31:07.381Z,0.00
2017-11-08T05:32:07.303Z,0.00
2017-11-08T05:33:07.224Z,0.00
2017-11-08T05:34:07.249Z,0.00
2017-11-08T05:35:07.204Z,0.00
2017-11-08T05:36:07.135Z,0.00
2017-11-08T05:37:07.094Z,0.00
2017-11-08T05:38:07.366Z,0.00
2017-11-08T05:39:06.875Z,0.00
2017-11-08T05:40:06.694Z,0.00
2017-11-08T05:41:06.458Z,0.00
2017-11-08T05:42:06.542Z,0.00
2017-11-08T05:43:06.423Z,0.00
2017-11-08T05:44:06.499Z,0.00
2017-11-08T05:45:06.327Z,0.00
2017-11-08T05:46:06.313Z,0.00
2017-11-08T05:47:06.240Z,0.00
2017-11-08T05:48:06.284Z,0.00
2017-11-08T05:49:06.232Z,0.00
2017-11-08T05:50:06.076Z,0.00
2017-11-08T05:51:06.095Z,0.00
2017-11-08T05:52:06.164Z,0.00
2017-11-08T05:53:06.034Z,0.00
2017-11-08T05:54:06.170Z,0.00
2017-11-08T05:55:06.002Z,0.00
2017-11-08T05:56:05.884Z,0.00
2017-11-08T05:57:05.922Z,0.00
2017-11-08T05:58:05.885Z,0.00
2017-11-08T05:59:05.901Z,0.00
2017-11-08T06:00:06.446Z,0.00
2017-11-08T06:01:05.713Z,0.00
2017-11-08T06:02:05.693Z,0.00
2017-11-08T06:03:05.542Z,0.00
2017-11-08T06:04:05.473Z,0.00
2017-11-08T06:05:05.472Z,0.00
2017-11-08T06:06:05.392Z,0.00
2017-11-08T06:07:05.419Z,0.00
2017-11-08T06:08:05.470Z,0.00
2017-11-08T06:09:05.385Z,0.00
2017-11-08T06:10:05.313Z,0.00
2017-11-08T06:11:05.304Z,0.00
2017-11-08T06:12:05.264Z,0.00
2017-11-08T06:13:05.235Z,5.63
2017-11-08T06:14:05.197Z,5.63
2017-11-08T06:15:06.546Z,5.63
2017-11-08T06:16:05.017Z,5.63
2017-11-08T06:17:05.003Z,5.63
2017-11-08T06:18:04.963Z,5.63
2017-11-08T06:19:04.867Z,5.63
2017-11-08T06:20:04.795Z,11.25
2017-11-08T06:21:04.828Z,11.25
2017-11-08T06:22:04.791Z,11.25
2017-11-08T06:23:04.718Z,11.25
2017-11-08T06:24:04.753Z,16.88
2017-11-08T06:25:04.617Z,16.88
2017-11-08T06:26:04.638Z,16.88
2017-11-08T06:27:04.563Z,16.88
2017-11-08T06:28:04.537Z,16.88
2017-11-08T06:29:04.473Z,22.50
2017-11-08T06:30:04.461Z,22.50
2017-11-08T06:31:04.361Z,22.50
2017-11-08T06:32:04.961Z,22.50
2017-11-08T06:33:04.282Z,28.13
2017-11-08T06:34:04.285Z,28.13
2017-11-08T06:35:04.267Z,33.75
2017-11-08T06:36:04.355Z,39.38
2017-11-08T06:37:04.092Z,45.00
2017-11-08T06:38:04.079Z,45.00
2017-11-08T06:39:04.113Z,50.63
2017-11-08T06:40:04.001Z,50.63
2017-11-08T06:41:03.896Z,50.63
2017-11-08T06:42:04.013Z,50.63
2017-11-08T06:43:03.941Z,45.00
2017-11-08T06:44:03.941Z,45.00
2017-11-08T06:45:03.886Z,45.00
2017-11-08T06:46:03.723Z,50.63
2017-11-08T06:47:03.683Z,50.63
2017-11-08T06:48:03.606Z,56.25
2017-11-08T06:49:03.570Z,56.25
2017-11-08T06:50:03.534Z,61.88
2017-11-08T06:51:03.583Z,67.50
2017-11-08T06:52:03.438Z,73.13
2017-11-08T06:53:03.462Z,84.38
2017-11-08T06:54:03.964Z,84.38
2017-11-08T06:55:03.982Z,90.00
2017-11-08T06:56:03.272Z,90.00
2017-11-08T06:57:03.324Z,84.38
2017-11-08T06:58:03.272Z,84.38
2017-11-08T06:59:03.159Z,90.00
2017-11-08T07:00:03.188Z,90.00
2017-11-08T07:01:03.169Z,90.00
2017-11-08T07:02:02.997Z,95.63
2017-11-08T07:03:03.003Z,101.25
2017-11-08T07:04:03.038Z,106.88
2017-11-08T07:05:02.939Z,106.88
2017-11-08T07:06:02.943Z,112.50
2017-11-08T07:07:02.842Z,112.50
2017-11-08T07:08:02.887Z,118.13
2017-11-08T07:09:02.775Z,118.13
2017-11-08T07:10:02.744Z,123.75
2017-11-08T07:11:02.608Z,123.75
2017-11-08T07:12:02.586Z,123.75
2017-11-08T07:13:02.578Z,129.38
2017-11-08T07:14:02.501Z,129.38
2017-11-08T07:15:02.493Z,129.38
2017-11-08T07:16:02.432Z,135.00
2017-11-08T07:17:02.431Z,135.00
2017-11-08T07:18:02.369Z,129.38
2017-11-08T07:19:02.391Z,129.38
2017-11-08T07:20:02.348Z,146.25
2017-11-08T07:21:02.210Z,157.50
2017-11-08T07:22:02.975Z,168.75
2017-11-08T07:23:02.255Z,174.38
2017-11-08T07:24:02.197Z,180.00
2017-11-08T07:25:02.042Z,185.63
2017-11-08T07:26:02.460Z,196.88
2017-11-08T07:27:01.974Z,202.50
2017-11-08T07:28:01.990Z,208.13
2017-11-08T07:29:01.985Z,208.13
2017-11-08T07:30:01.813Z,213.75
2017-11-08T07:31:01.817Z,213.75
2017-11-08T07:32:01.833Z,225.00
2017-11-08T07:33:01.666Z,230.63
2017-11-08T07:34:01.690Z,236.25
2017-11-08T07:35:01.625Z,241.88
2017-11-08T07:36:01.556Z,247.50
2017-11-08T07:37:01.510Z,253.13
2017-11-08T07:38:01.516Z,270.00
2017-11-08T07:39:01.507Z,281.25
2017-11-08T07:40:01.503Z,286.88
2017-11-08T07:41:01.343Z,286.88
2017-11-08T07:42:01.287Z,286.88
2017-11-08T07:43:01.340Z,298.13
2017-11-08T07:44:01.299Z,320.63
2017-11-08T07:45:01.200Z,337.50
2017-11-08T07:46:01.135Z,354.38
2017-11-08T07:47:01.157Z,360.00
2017-11-08T07:48:01.040Z,365.63
2017-11-08T07:49:01.039Z,365.63
2017-11-08T07:50:00.970Z,360.00
2017-11-08T07:51:00.912Z,343.13
2017-11-08T07:52:00.868Z,331.88
2017-11-08T07:53:00.914Z,326.25
2017-11-08T07:54:00.839Z,315.00
2017-11-08T07:55:00.754Z,303.75
2017-11-08T07:56:00.845Z,292.50
2017-11-08T07:57:00.731Z,292.50
2017-11-08T07:58:00.747Z,303.75
2017-11-08T07:59:00.567Z,292.50
2017-11-08T08:00:00.532Z,286.88
2017-11-08T08:01:00.481Z,286.88
2017-11-08T08:02:00.475Z,286.88
2017-11-08T08:03:00.502Z,281.25
2017-11-08T08:04:00.400Z,264.38
2017-11-08T08:05:00.329Z,258.75
2017-11-08T08:06:00.356Z,275.63
2017-11-08T08:07:00.293Z,270.00
2017-11-08T08:08:00.239Z,264.38
2017-11-08T08:09:00.194Z,264.38
2017-11-08T08:10:00.139Z,275.63
2017-11-08T08:11:00.157Z,292.50
2017-11-08T08:12:00.096Z,320.63
2017-11-08T08:13:00.083Z,348.75
2017-11-08T08:14:00.009Z,365.63
2017-11-08T08:15:00.032Z,376.88
2017-11-08T08:15:59.952Z,382.50
2017-11-08T08:17:00.479Z,388.13
2017-11-08T08:18:00.508Z,388.13
2017-11-08T08:18:59.820Z,382.50
2017-11-08T08:19:59.828Z,382.50
2017-11-08T08:20:59.734Z,393.75
2017-11-08T08:21:59.618Z,405.00
2017-11-08T08:22:59.636Z,410.63
2017-11-08T08:23:59.594Z,399.38
2017-11-08T08:24:59.604Z,376.88
2017-11-08T08:25:59.471Z,365.63
2017-11-08T08:26:59.416Z,360.00
2017-11-08T08:27:59.409Z,348.75
2017-11-08T08:28:59.347Z,337.50
2017-11-08T08:29:59.338Z,331.88
2017-11-08T08:30:59.238Z,337.50
2017-11-08T08:31:59.232Z,348.75
2017-11-08T08:32:59.204Z,382.50
2017-11-08T08:33:59.233Z,433.13
2017-11-08T08:34:59.072Z,472.50
2017-11-08T08:35:59.145Z,517.50
2017-11-08T08:36:59.100Z,540.00
2017-11-08T08:37:59.066Z,568.13
2017-11-08T08:38:59.019Z,596.25
2017-11-08T08:39:58.980Z,624.38
2017-11-08T08:40:58.876Z,635.63
2017-11-08T08:41:58.847Z,630.00
2017-11-08T08:42:58.772Z,641.25
2017-11-08T08:43:58.755Z,680.63
2017-11-08T08:44:58.695Z,720.00
2017-11-08T08:45:58.644Z,725.63
2017-11-08T08:46:58.567Z,720.00
2017-11-08T08:47:58.563Z,731.25
2017-11-08T08:48:58.477Z,759.38
2017-11-08T08:51:42.486Z,793.13
2017-11-08T08:52:42.431Z,798.75
2017-11-08T08:54:39.030Z,843.75
2017-11-08T08:55:38.943Z,883.13
2017-11-08T08:57:33.771Z,978.75
2017-11-08T08:58:33.686Z,1046.25
2017-11-08T09:00:27.294Z,1141.88
2017-11-08T09:01:27.208Z,1158.75
2017-11-08T09:03:21.813Z,1130.63
2017-11-08T09:04:21.811Z,1125.00
2017-11-08T09:06:15.452Z,1136.25
2017-11-08T09:07:15.368Z,1091.25
2017-11-08T09:09:09.309Z,995.63
2017-11-08T09:10:08.933Z,1018.13
2017-11-08T09:12:03.516Z,1490.63
2017-11-08T09:13:03.547Z,1755.00
2017-11-08T09:14:56.711Z,1935.00
2017-11-08T09:15:56.583Z,2047.50
2017-11-08T09:17:49.643Z,1929.38
2017-11-08T09:18:50.193Z,1794.38
2017-11-08T09:20:42.797Z,1687.50
2017-11-08T09:21:42.751Z,1681.88
2017-11-08T09:23:36.836Z,1344.38
2017-11-08T09:24:36.252Z,1226.25
2017-11-08T09:25:37.045Z,1170.00
2017-11-08T09:26:36.656Z,1198.13
2017-11-08T09:27:36.183Z,1220.63
2017-11-08T09:28:36.061Z,1237.50
2017-11-08T09:29:36.099Z,1215.00
2017-11-08T09:30:36.591Z,1243.13
2017-11-08T09:31:36.588Z,1215.00
2017-11-08T09:32:36.015Z,1220.63
2017-11-08T09:33:36.510Z,1265.63
2017-11-08T09:34:35.945Z,1366.88
2017-11-08T09:35:35.921Z,1411.88
2017-11-08T09:36:36.408Z,1333.13
2017-11-08T09:37:36.359Z,1321.88
2017-11-08T09:38:35.747Z,1338.75
2017-11-08T09:39:35.736Z,1417.50
2017-11-08T09:40:36.248Z,1569.38
2017-11-08T09:41:35.704Z,1597.50
2017-11-08T09:42:35.654Z,1378.13
2017-11-08T09:43:35.614Z,1608.75
2017-11-08T09:44:36.071Z,1378.13
2017-11-08T09:45:37.166Z,1265.63
2017-11-08T09:46:35.501Z,1209.38
2017-11-08T09:47:35.487Z,1170.00
2017-11-08T09:48:35.448Z,1141.88
2017-11-08T09:49:35.397Z,1147.50
2017-11-08T09:50:35.324Z,1147.50
2017-11-08T09:51:35.309Z,1113.75
2017-11-08T09:52:35.337Z,1057.50
2017-11-08T09:53:35.257Z,1012.50
2017-11-08T09:54:35.090Z,1001.25
2017-11-08T09:55:34.838Z,1046.25
2017-11-08T09:56:34.832Z,1074.38
2017-11-08T09:57:34.744Z,1012.50
2017-11-08T09:58:34.752Z,984.38
2017-11-08T09:59:34.591Z,973.13
2017-11-08T10:00:34.638Z,984.38
2017-11-08T10:01:34.698Z,967.50
2017-11-08T10:02:34.611Z,911.25
2017-11-08T10:03:34.452Z,832.50
2017-11-08T10:04:34.489Z,765.00
2017-11-08T10:05:34.407Z,675.00
2017-11-08T10:06:34.321Z,613.13
2017-11-08T10:07:34.323Z,646.88
2017-11-08T10:08:34.306Z,697.50
2017-11-08T10:09:34.404Z,731.25
2017-11-08T10:10:34.296Z,742.50
2017-11-08T10:11:34.160Z,731.25
2017-11-08T10:12:34.251Z,703.13
2017-11-08T10:13:34.097Z,663.75
2017-11-08T10:14:34.080Z,652.50
2017-11-08T10:15:34.064Z,686.25
2017-11-08T10:16:34.053Z,759.38
2017-11-08T10:17:34.078Z,849.38
2017-11-08T10:18:33.996Z,894.38
2017-11-08T10:19:33.951Z,905.63
2017-11-08T10:20:33.856Z,855.00
2017-11-08T10:21:33.784Z,804.38
2017-11-08T10:22:33.859Z,759.38
2017-11-08T10:23:33.770Z,731.25
2017-11-08T10:24:33.785Z,703.13
2017-11-08T10:25:33.689Z,736.88
2017-11-08T10:26:33.612Z,759.38
2017-11-08T10:27:33.543Z,781.88
2017-11-08T10:28:33.494Z,781.88
2017-11-08T10:29:33.477Z,691.88
2017-11-08T10:30:33.475Z,658.13
2017-11-08T10:31:33.403Z,646.88
2017-11-08T10:32:33.457Z,658.13
2017-11-08T10:33:33.315Z,731.25
2017-11-08T10:34:33.290Z,832.50
2017-11-08T10:35:33.323Z,894.38
2017-11-08T10:36:33.268Z,916.88
2017-11-08T10:37:33.186Z,905.63
2017-11-08T10:38:33.176Z,849.38
2017-11-08T10:39:33.116Z,781.88
2017-11-08T10:40:33.084Z,675.00
2017-11-08T10:41:33.090Z,585.00
2017-11-08T10:42:32.988Z,556.88
2017-11-08T10:43:32.964Z,641.25
2017-11-08T10:44:32.877Z,703.13
2017-11-08T10:45:32.908Z,708.75
2017-11-08T10:46:32.939Z,736.88
2017-11-08T10:47:32.814Z,736.88
2017-11-08T10:48:32.764Z,736.88
2017-11-08T10:49:32.762Z,753.75
2017-11-08T10:50:32.626Z,815.63
2017-11-08T10:51:32.614Z,911.25
2017-11-08T10:52:32.655Z,1006.88
2017-11-08T10:53:32.694Z,1001.25
2017-11-08T10:54:32.568Z,900.00
2017-11-08T10:55:32.477Z,877.50
2017-11-08T10:56:32.403Z,939.38
2017-11-08T10:57:32.445Z,939.38
2017-11-08T10:58:32.308Z,894.38
2017-11-08T10:59:32.280Z,855.00
2017-11-08T11:00:32.405Z,826.88
2017-11-08T11:01:35.182Z,815.63
2017-11-08T11:02:32.155Z,821.25
2017-11-08T11:03:32.212Z,855.00
2017-11-08T11:04:35.589Z,922.50
2017-11-08T11:05:32.150Z,1006.88
2017-11-08T11:06:32.117Z,1085.63
2017-11-08T11:07:32.036Z,1141.88
2017-11-08T11:08:31.972Z,1158.75
2017-11-08T11:09:31.957Z,1125.00
2017-11-08T11:10:31.983Z,1068.75
2017-11-08T11:11:31.967Z,990.00
2017-11-08T11:12:31.836Z,933.75
2017-11-08T11:13:31.801Z,911.25
2017-11-08T11:14:31.851Z,900.00
2017-11-08T11:15:31.710Z,894.38
2017-11-08T11:16:31.659Z,922.50
2017-11-08T11:17:31.712Z,990.00
2017-11-08T11:18:31.545Z,1125.00
2017-11-08T11:19:31.552Z,1288.13
2017-11-08T11:20:31.507Z,1445.63
2017-11-08T11:21:31.557Z,1603.13
2017-11-08T11:22:31.561Z,1715.63
2017-11-08T11:23:31.358Z,1794.38
2017-11-08T11:24:31.470Z,1828.13
2017-11-08T11:25:31.352Z,1732.50
2017-11-08T11:26:31.324Z,1749.38
2017-11-08T11:27:31.275Z,1721.25
2017-11-08T11:28:31.427Z,1670.63
2017-11-08T11:29:31.236Z,1625.63
2017-11-08T11:30:31.116Z,1659.38
2017-11-08T11:31:31.263Z,1760.63
2017-11-08T11:32:31.087Z,1878.75
2017-11-08T11:33:31.221Z,1957.50
2017-11-08T11:34:31.087Z,1586.25
2017-11-08T11:35:31.068Z,1451.25
2017-11-08T11:36:31.028Z,1423.13
2017-11-08T11:37:31.605Z,1693.13
2017-11-08T11:38:30.852Z,1935.00
2017-11-08T11:39:30.912Z,2075.63
2017-11-08T11:40:30.781Z,2013.75
2017-11-08T11:41:30.874Z,1726.88
2017-11-08T11:42:30.746Z,1653.75
2017-11-08T11:43:30.729Z,1693.13
2017-11-08T11:44:30.832Z,1828.13
2017-11-08T11:45:30.718Z,1653.75
2017-11-08T11:46:30.528Z,1524.38
2017-11-08T11:47:30.629Z,1456.88
2017-11-08T11:48:30.462Z,1389.38
2017-11-08T11:49:31.104Z,1372.50
2017-11-08T11:50:30.434Z,1389.38
2017-11-08T11:51:30.628Z,1417.50
2017-11-08T11:52:30.535Z,1451.25
2017-11-08T11:53:30.317Z,1546.88
2017-11-08T11:54:32.365Z,1625.63
2017-11-08T11:55:30.275Z,1496.25
2017-11-08T11:56:31.900Z,1417.50
2017-11-08T11:57:30.174Z,1451.25
2017-11-08T11:58:30.305Z,1569.38
2017-11-08T11:59:31.887Z,1530.00
2017-11-08T12:00:30.088Z,1355.63
2017-11-08T12:01:30.171Z,1372.50
2017-11-08T12:02:30.611Z,1299.38
2017-11-08T12:03:29.964Z,1265.63
2017-11-08T12:04:29.953Z,1260.00
2017-11-08T12:05:30.018Z,1271.25
2017-11-08T12:06:29.873Z,1383.75
2017-11-08T12:07:29.915Z,1293.75
2017-11-08T12:08:29.850Z,1265.63
2017-11-08T12:09:30.022Z,1260.00
2017-11-08T12:10:31.926Z,1305.00
2017-11-08T12:11:42.433Z,1361.25
2017-11-08T12:13:28.263Z,1361.25
2017-11-08T12:14:28.142Z,1271.25
2017-11-08T12:16:21.280Z,1130.63
2017-11-08T12:17:23.292Z,1102.50
2017-11-08T12:19:21.462Z,1074.38
2017-11-08T12:20:21.902Z,1063.13
2017-11-08T12:22:14.521Z,1046.25
2017-11-08T12:23:14.949Z,1040.63
2017-11-08T12:25:20.683Z,1057.50
2017-11-08T12:26:20.580Z,1085.63
2017-11-08T12:28:15.190Z,1085.63
2017-11-08T12:29:15.435Z,1040.63
2017-11-08T12:31:18.559Z,973.13
2017-11-08T12:32:18.667Z,950.63
2017-11-08T12:34:12.087Z,916.88
2017-11-08T12:35:12.000Z,905.63
2017-11-08T12:37:05.922Z,900.00
2017-11-08T12:38:05.596Z,888.75
2017-11-08T12:40:00.234Z,871.88
2017-11-08T12:41:00.481Z,877.50
2017-11-08T12:42:55.825Z,894.38
2017-11-08T12:43:54.671Z,922.50
2017-11-08T12:45:59.392Z,978.75
2017-11-08T12:46:59.309Z,916.88
2017-11-08T12:48:55.682Z,630.00
2017-11-08T12:49:55.543Z,540.00
2017-11-08T12:52:04.348Z,506.25
2017-11-08T12:53:04.232Z,495.00
2017-11-08T12:54:58.190Z,483.75
2017-11-08T12:55:58.171Z,495.00
2017-11-08T12:57:51.240Z,534.38
2017-11-08T12:58:51.195Z,528.75
2017-11-08T13:00:45.308Z,534.38
2017-11-08T13:01:45.315Z,540.00
2017-11-08T13:03:39.421Z,523.13
2017-11-08T13:04:39.400Z,500.63
2017-11-08T13:06:33.177Z,562.50
2017-11-08T13:07:33.042Z,590.63
2017-11-08T13:09:30.222Z,585.00
2017-11-08T13:10:29.936Z,579.38
2017-11-08T13:12:23.136Z,613.13
2017-11-08T13:13:23.072Z,624.38
2017-11-08T13:15:17.930Z,601.88
2017-11-08T13:16:16.812Z,579.38
2017-11-08T13:18:20.011Z,540.00
2017-11-08T13:19:19.863Z,528.75
2017-11-08T13:21:16.302Z,511.88
2017-11-08T13:22:15.958Z,511.88
2017-11-08T13:24:10.378Z,511.88
2017-11-08T13:25:09.424Z,511.88
2017-11-08T13:27:17.350Z,495.00
2017-11-08T13:30:11.610Z,461.25
2017-11-08T13:31:11.954Z,450.00
2017-11-08T13:33:04.634Z,438.75
2017-11-08T13:34:04.561Z,438.75
2017-11-08T13:35:58.229Z,455.63
2017-11-08T13:36:58.144Z,455.63
2017-11-08T13:38:57.358Z,461.25
2017-11-08T13:39:57.296Z,478.13
2017-11-08T13:41:51.151Z,506.25
2017-11-08T13:43:02.920Z,506.25
2017-11-08T13:45:30.004Z,517.50
2017-11-08T13:46:29.428Z,506.25
2017-11-08T13:48:32.437Z,500.63
2017-11-08T13:49:32.623Z,495.00
2017-11-08T13:51:30.007Z,495.00
2017-11-08T13:53:43.490Z,506.25
2017-11-08T13:54:43.256Z,511.88
2017-11-08T13:56:37.885Z,540.00
2017-11-08T13:57:37.138Z,545.63
2017-11-08T13:59:31.394Z,573.75
2017-11-08T14:00:31.592Z,573.75
2017-11-08T14:02:29.065Z,551.25
2017-11-08T14:03:28.717Z,562.50
2017-11-08T14:05:52.777Z,573.75
2017-11-08T14:06:52.628Z,585.00
2017-11-08T14:08:56.707Z,556.88
2017-11-08T14:09:56.421Z,540.00
2017-11-08T14:11:50.198Z,540.00
2017-11-08T14:12:50.000Z,556.88
2017-11-08T14:14:43.557Z,568.13
2017-11-08T14:15:43.260Z,568.13
2017-11-08T14:17:38.681Z,556.88
2017-11-08T14:18:38.539Z,556.88
2017-11-08T14:20:40.004Z,556.88
2017-11-08T14:21:39.818Z,540.00
2017-11-08T14:24:20.053Z,556.88
2017-11-08T14:25:19.948Z,562.50
2017-11-08T14:27:31.873Z,590.63
2017-11-08T14:28:31.344Z,568.13
2017-11-08T14:30:25.145Z,523.13
2017-11-08T14:31:25.065Z,495.00
2017-11-08T14:33:27.381Z,382.50
2017-11-08T14:34:27.831Z,360.00
2017-11-08T14:36:22.090Z,337.50
2017-11-08T14:37:22.010Z,331.88
2017-11-08T14:39:30.466Z,320.63
2017-11-08T14:40:30.403Z,292.50
2017-11-08T14:42:26.121Z,264.38
2017-11-08T14:43:26.149Z,253.13
2017-11-08T14:45:26.025Z,230.63
2017-11-08T14:46:22.463Z,225.00
2017-11-08T14:48:31.653Z,202.50
2017-11-08T14:49:31.493Z,196.88